Airfield :







YOU CAN JOIN US ON...

 
LOGIN :

Register | Disclaimer

   EN    FR    IT 

 









Legend :    VFR   Marginal VFR   IFR   Intensive IFR   Very Intensive IFR
Visi :
Ceiling :
>= 8 km
>= 3000ft
5 to 8 km
1000 to 3000 ft
1500m to 5 km
500 to 1000 ft
800 to 1500m
200 to 500 ft
< 800m
< 200 ft
Symbols :   Thunderstorms  Fog  Heavy snow  Heavy precipitations  Wind > 20 kt






- Airport Elevation : 171 ft
- IATA code : KEF


BIKF - Keflavik International

CURRENT METAR :
  • 220100Z 25010KT 9999 OVC014 08/06 Q1000

EXPIRED METARs :
  • 220030Z 26013KT 9999 OVC014 07/06 Q1000
  • 220000Z 25009KT 9999 OVC012 08/07 Q1000
  • 212330Z 25014KT 9999 BKN007 OVC011 08/07 Q0999
  • 212300Z 26012KT 8000 BR BKN003 OVC006 08/08 Q0999
  • 212230Z 24012KT 210V270 2500 -DZ BR BKN002 OVC010 08/08 Q0999

TAF TAF BIKF
Valid from the 22 at 00:00 until the 23 at 00:00 UTC


212241Z 2200/2300 27013KT 5000 -DZ BR BKN005 TX09/2217Z TN07/2206Z
TEMPO 2200/2202 1000 -DZ BR VV002
PROB40
TEMPO 2202/2204 9999 -SHRA BKN018
PROB40
TEMPO 2203/2206 4000 SHRA BKN010CB
BECMG 2218/2220 30008KT



MET'MAP, your aeronautical weather chart ! - Copyright ORBIFLY December 2007 - Disclaimer

ORBIFLY MET'MAP TEAM :

Programming & Development : Alexandra Zaïnal
Concept & original design : Baudouin d'Aumeries
Assistance for programming : Marc-Olivier Méhu
Technical & hardware support : Manuel Goepfert

Contact : metmap@orbifly.com




SOURCES & CREDITS :

   NOAA